Time;durP1;ratioP1;P1;durP2;ratioP2;P2;SDS_P1;SDS_P2;PMS_P1;PMS_P2;Temp;Humidity;BMP_temperature;BMP_pressure;BME280_temperature;BME280_humidity;BME280_pressure;Samples;Min_cycle;Max_cycle;Signal;HPM_P1;HPM_P2
2021/04/03 00:00:11;;;;;;;16.23;3.70;;;3.90;99.90;;;;;;4983775;28;20704;-50
2021/04/03 00:02:38;;;;;;;16.97;4.17;;;3.90;99.90;;;;;;4967013;28;20213;-56
2021/04/03 00:05:07;;;;;;;17.20;3.70;;;3.90;99.90;;;;;;4983896;28;20606;-54
2021/04/03 00:07:33;;;;;;;21.60;4.77;;;3.90;99.90;;;;;;4979803;28;20415;-51
2021/04/03 00:10:00;;;;;;;19.83;4.57;;;3.80;99.90;;;;;;4983540;28;20281;-54
2021/04/03 00:12:26;;;;;;;15.10;3.70;;;3.90;99.90;;;;;;4979001;28;20657;-55
2021/04/03 00:14:52;;;;;;;21.27;3.73;;;3.80;99.90;;;;;;4982963;28;20211;-49
2021/04/03 00:17:18;;;;;;;17.50;4.27;;;3.80;99.90;;;;;;4967901;28;20296;-54
2021/04/03 00:19:44;;;;;;;30.07;3.90;;;3.70;99.90;;;;;;4982231;28;20373;-58
2021/04/03 00:22:11;;;;;;;13.17;4.03;;;3.80;99.90;;;;;;4987443;28;20673;-54
2021/04/03 00:24:38;;;;;;;22.67;4.53;;;3.70;99.90;;;;;;4985065;28;20284;-58
2021/04/03 00:27:05;;;;;;;15.43;4.20;;;3.70;99.90;;;;;;4988514;28;20205;-57
2021/04/03 00:29:31;;;;;;;18.17;3.80;;;3.70;99.90;;;;;;4983338;28;20264;-52
2021/04/03 00:31:57;;;;;;;17.47;3.77;;;3.70;99.90;;;;;;4987636;28;20614;-54
2021/04/03 00:34:24;;;;;;;19.67;4.10;;;3.70;99.90;;;;;;4970732;28;20690;-51
2021/04/03 00:36:50;;;;;;;20.70;3.50;;;3.70;99.90;;;;;;4987877;28;20210;-57
2021/04/03 00:39:17;;;;;;;22.43;3.90;;;3.60;99.90;;;;;;4985496;28;20566;-51
2021/04/03 00:41:43;;;;;;;21.50;3.73;;;3.60;99.90;;;;;;4985388;28;20414;-53
2021/04/03 00:44:09;;;;;;;17.53;3.77;;;3.60;99.90;;;;;;4986768;28;20264;-56
2021/04/03 00:46:35;;;;;;;17.03;3.77;;;3.60;99.90;;;;;;4983328;28;20477;-53
2021/04/03 00:49:04;;;;;;;18.13;3.60;;;3.60;99.90;;;;;;4986312;28;20240;-50
2021/04/03 00:51:32;;;;;;;14.63;3.17;;;3.60;99.90;;;;;;4975110;28;20295;-50
2021/04/03 00:53:58;;;;;;;21.10;4.20;;;3.60;99.90;;;;;;4984657;28;20677;-50
2021/04/03 00:56:25;;;;;;;18.33;3.60;;;3.50;99.90;;;;;;4982483;28;20229;-50
2021/04/03 00:58:53;;;;;;;16.80;4.50;;;3.50;99.90;;;;;;4985831;28;20552;-52
2021/04/03 01:01:20;;;;;;;13.33;3.33;;;3.60;99.90;;;;;;4998259;28;20214;-53
2021/04/03 01:03:49;;;;;;;17.93;3.40;;;3.50;99.90;;;;;;4985667;28;20292;-55
2021/04/03 01:06:17;;;;;;;26.73;4.10;;;3.50;99.90;;;;;;4971026;28;20292;-56
2021/04/03 01:08:44;;;;;;;21.73;4.27;;;3.50;99.90;;;;;;4976232;28;20229;-54
2021/04/03 01:11:10;;;;;;;22.60;3.27;;;3.50;99.90;;;;;;4985767;28;20761;-57
2021/04/03 01:13:53;;;;;;;14.50;3.40;;;3.50;99.90;;;;;;4998294;28;20591;-52
2021/04/03 01:16:32;;;;;;;18.33;3.33;;;3.40;99.90;;;;;;4997029;28;20702;-53
2021/04/03 01:19:25;;;;;;;17.90;3.77;;;3.40;99.90;;;;;;5000438;28;20232;-50
2021/04/03 01:22:22;;;;;;;17.77;3.53;;;3.40;99.90;;;;;;4984350;28;20288;-51
2021/04/03 01:25:03;;;;;;;19.00;3.60;;;3.40;99.90;;;;;;4975950;28;20212;-50
2021/04/03 01:27:34;;;;;;;15.80;3.60;;;3.40;99.90;;;;;;4982727;28;20781;-56
2021/04/03 01:30:07;;;;;;;17.53;3.70;;;3.40;99.90;;;;;;5001745;28;20567;-57
2021/04/03 01:32:48;;;;;;;16.10;3.57;;;3.40;99.90;;;;;;4983951;28;20211;-54
2021/04/03 01:35:22;;;;;;;10.63;2.83;;;3.40;99.90;;;;;;4993607;28;20263;-59
2021/04/03 01:37:54;;;;;;;15.67;3.93;;;3.40;99.90;;;;;;4981062;28;20702;-48
2021/04/03 01:40:24;;;;;;;18.33;3.70;;;3.40;99.90;;;;;;4965038;28;20698;-55
2021/04/03 01:42:57;;;;;;;15.87;3.57;;;3.30;99.90;;;;;;5000088;28;20211;-54
2021/04/03 01:45:25;;;;;;;16.90;4.10;;;3.30;99.90;;;;;;4978002;28;20217;-54
2021/04/03 01:47:55;;;;;;;21.13;4.03;;;3.30;99.90;;;;;;5001475;28;20209;-53
2021/04/03 01:50:22;;;;;;;20.17;4.07;;;3.30;99.90;;;;;;4997415;28;20286;-51
2021/04/03 01:52:50;;;;;;;11.10;3.77;;;3.30;99.90;;;;;;4969386;28;20208;-54
2021/04/03 01:55:17;;;;;;;15.10;4.17;;;3.30;99.90;;;;;;4981726;28;20236;-57
2021/04/03 01:57:48;;;;;;;15.97;3.67;;;3.30;99.90;;;;;;4983321;28;20293;-50
2021/04/03 02:00:20;;;;;;;15.67;3.90;;;3.20;99.90;;;;;;4983550;28;20233;-57
2021/04/03 02:03:00;;;;;;;16.03;3.43;;;3.20;99.90;;;;;;4984953;28;20627;-52
2021/04/03 02:05:29;;;;;;;24.03;4.27;;;3.20;99.90;;;;;;4995573;28;20231;-52
2021/04/03 02:08:16;;;;;;;11.57;3.33;;;3.20;99.90;;;;;;4968466;28;20300;-51
2021/04/03 02:10:50;;;;;;;18.57;3.83;;;3.10;99.90;;;;;;4998503;28;20200;-54
2021/04/03 02:13:17;;;;;;;16.93;3.60;;;3.10;99.90;;;;;;4983726;28;20303;-57
2021/04/03 02:15:51;;;;;;;20.10;3.73;;;3.00;99.90;;;;;;4983678;28;20236;-49
2021/04/03 02:18:19;;;;;;;16.13;3.90;;;3.00;99.90;;;;;;4982593;28;20203;-56
2021/04/03 02:20:46;;;;;;;16.07;3.73;;;3.00;99.90;;;;;;4983278;28;20429;-53
2021/04/03 02:23:16;;;;;;;22.23;3.87;;;2.90;99.90;;;;;;4967961;28;20619;-55
2021/04/03 02:25:44;;;;;;;18.53;3.90;;;2.90;99.90;;;;;;4998081;28;20449;-57
2021/04/03 02:28:17;;;;;;;13.67;4.13;;;2.90;99.90;;;;;;4983008;28;20211;-57
2021/04/03 02:30:49;;;;;;;18.90;4.13;;;2.90;99.90;;;;;;4998662;28;20215;-55
2021/04/03 02:33:15;;;;;;;15.23;3.27;;;2.90;99.90;;;;;;4982598;28;20220;-54
2021/04/03 02:35:42;;;;;;;18.13;4.60;;;2.80;99.90;;;;;;4982078;28;20227;-50
2021/04/03 02:38:12;;;;;;;11.73;3.63;;;2.80;99.90;;;;;;4969130;28;20288;-54
2021/04/03 02:40:49;;;;;;;9.43;3.00;;;2.80;99.90;;;;;;4998135;28;20754;-56
2021/04/03 02:43:27;;;;;;;17.40;3.70;;;2.70;99.90;;;;;;4981776;28;20219;-53
2021/04/03 02:45:58;;;;;;;15.73;3.13;;;2.70;99.90;;;;;;4982686;28;20646;-54
2021/04/03 02:48:29;;;;;;;23.87;4.50;;;2.70;99.90;;;;;;4995189;28;20282;-51
2021/04/03 02:51:00;;;;;;;16.43;3.30;;;2.70;99.90;;;;;;4998731;28;20208;-52
2021/04/03 02:53:30;;;;;;;15.10;4.20;;;2.60;99.90;;;;;;4965099;28;20207;-52
2021/04/03 02:56:01;;;;;;;16.60;4.00;;;2.60;99.90;;;;;;4998346;28;20210;-54
2021/04/03 02:58:32;;;;;;;17.13;3.83;;;2.60;99.90;;;;;;4980170;28;20748;-56
2021/04/03 03:00:59;;;;;;;18.17;5.03;;;2.60;99.90;;;;;;4999688;28;20262;-53
2021/04/03 03:03:28;;;;;;;19.37;3.43;;;2.60;99.90;;;;;;4980075;28;20207;-51
2021/04/03 03:05:58;;;;;;;12.17;3.33;;;2.60;99.90;;;;;;4983865;28;20397;-50
2021/04/03 03:08:26;;;;;;;20.13;3.50;;;2.50;99.90;;;;;;4979511;28;20221;-51
2021/04/03 03:10:55;;;;;;;11.03;2.87;;;2.50;99.90;;;;;;4983521;28;20212;-56
2021/04/03 03:13:23;;;;;;;14.33;4.20;;;2.50;99.90;;;;;;4981465;28;20492;-56
2021/04/03 03:15:49;;;;;;;13.23;2.93;;;2.50;99.90;;;;;;4998549;28;20338;-51
2021/04/03 03:18:19;;;;;;;14.17;3.43;;;2.50;99.90;;;;;;4981750;28;20299;-56
2021/04/03 03:20:47;;;;;;;14.23;3.90;;;2.50;99.90;;;;;;4981558;28;20425;-52
2021/04/03 03:23:16;;;;;;;9.20;3.30;;;2.40;99.90;;;;;;4991428;28;20224;-57
2021/04/03 03:25:45;;;;;;;16.27;3.60;;;2.40;99.90;;;;;;4975276;28;20211;-51
2021/04/03 03:28:12;;;;;;;16.87;4.00;;;2.40;99.90;;;;;;4963503;28;20217;-55
2021/04/03 03:30:43;;;;;;;11.73;3.07;;;2.40;99.90;;;;;;4976551;28;20778;-52
2021/04/03 03:33:15;;;;;;;17.07;3.83;;;2.40;99.90;;;;;;4981702;28;20212;-53
2021/04/03 03:35:41;;;;;;;12.73;3.23;;;2.40;99.90;;;;;;4997622;28;20959;-56
2021/04/03 03:38:08;;;;;;;8.27;3.07;;;2.40;99.90;;;;;;4983559;28;20282;-50
2021/04/03 03:40:36;;;;;;;15.20;3.67;;;2.40;99.90;;;;;;4964761;28;20297;-55
2021/04/03 03:43:09;;;;;;;9.37;2.87;;;2.30;99.90;;;;;;4962715;28;20219;-51
2021/04/03 03:45:35;;;;;;;12.57;3.50;;;2.30;99.90;;;;;;4971629;28;20208;-51
2021/04/03 03:48:05;;;;;;;16.17;3.93;;;2.30;99.90;;;;;;4972192;28;20210;-52
2021/04/03 03:50:37;;;;;;;15.10;4.07;;;2.30;99.90;;;;;;4978454;28;20267;-55
2021/04/03 03:53:05;;;;;;;12.83;3.90;;;2.30;99.90;;;;;;4997635;28;20456;-56
2021/04/03 03:55:32;;;;;;;15.20;4.40;;;2.20;99.90;;;;;;4980333;28;20531;-52
2021/04/03 03:58:02;;;;;;;15.17;3.87;;;2.30;99.90;;;;;;4998784;28;20211;-55
2021/04/03 04:00:32;;;;;;;11.97;3.87;;;2.20;99.90;;;;;;4994800;28;20223;-57
2021/04/03 04:03:06;;;;;;;19.10;4.67;;;2.20;99.90;;;;;;4984294;28;20292;-55
2021/04/03 04:05:37;;;;;;;14.53;4.00;;;2.20;99.90;;;;;;4995981;28;20898;-55
2021/04/03 04:08:06;;;;;;;15.77;4.30;;;2.20;99.90;;;;;;4982984;28;20219;-51
2021/04/03 04:10:33;;;;;;;11.60;4.07;;;2.20;99.90;;;;;;4978602;28;20507;-50
2021/04/03 04:13:02;;;;;;;13.67;3.80;;;2.20;99.90;;;;;;4997383;28;20297;-49
2021/04/03 04:15:28;;;;;;;15.20;4.40;;;2.30;99.90;;;;;;4976997;28;20531;-51
2021/04/03 04:17:56;;;;;;;16.10;4.00;;;2.20;99.90;;;;;;4981453;28;20716;-55
2021/04/03 04:20:23;;;;;;;12.47;4.13;;;2.20;99.90;;;;;;4979244;28;20241;-55
2021/04/03 04:22:54;;;;;;;13.00;4.17;;;2.30;99.90;;;;;;4997379;28;20676;-51
2021/04/03 04:25:27;;;;;;;9.70;3.90;;;2.20;99.90;;;;;;4980129;28;20213;-54
2021/04/03 04:27:53;;;;;;;11.40;4.07;;;2.20;99.90;;;;;;4971184;28;20200;-47
2021/04/03 04:30:22;;;;;;;7.93;3.70;;;2.20;99.90;;;;;;4994642;28;20231;-56
2021/04/03 04:32:57;;;;;;;8.57;3.83;;;2.20;99.90;;;;;;4997713;28;20202;-52
2021/04/03 04:35:23;;;;;;;7.23;3.00;;;2.20;99.90;;;;;;4979190;28;20685;-54
2021/04/03 04:37:56;;;;;;;13.47;3.73;;;2.20;99.90;;;;;;4982600;28;20778;-48
2021/04/03 04:40:22;;;;;;;10.53;3.60;;;2.20;99.90;;;;;;4979790;28;20258;-56
2021/04/03 04:42:50;;;;;;;12.43;3.53;;;2.20;99.90;;;;;;4969288;28;20204;-51
2021/04/03 04:45:21;;;;;;;11.40;3.10;;;2.20;99.90;;;;;;4989701;28;20608;-57
2021/04/03 04:47:48;;;;;;;8.63;4.00;;;2.20;99.90;;;;;;4988108;28;20214;-55
2021/04/03 04:50:18;;;;;;;7.43;3.57;;;2.20;99.90;;;;;;4961621;28;20231;-55
2021/04/03 04:52:47;;;;;;;17.00;3.70;;;2.20;99.90;;;;;;4981143;28;20207;-57
2021/04/03 04:55:13;;;;;;;9.00;3.77;;;2.20;99.90;;;;;;4982779;28;20204;-53
2021/04/03 04:57:42;;;;;;;17.93;4.07;;;2.20;99.90;;;;;;4981603;28;20908;-56
2021/04/03 05:00:14;;;;;;;7.70;3.60;;;2.20;99.90;;;;;;4982306;28;20225;-51
2021/04/03 05:02:54;;;;;;;12.23;3.53;;;2.20;99.90;;;;;;4982222;28;20210;-57
2021/04/03 05:05:21;;;;;;;11.20;3.57;;;2.20;99.90;;;;;;4981338;28;20215;-53
2021/04/03 05:07:47;;;;;;;15.33;3.47;;;2.20;99.90;;;;;;4986502;28;20295;-57
2021/04/03 05:10:13;;;;;;;9.93;3.50;;;2.10;99.90;;;;;;4986147;28;20233;-53
2021/04/03 05:12:40;;;;;;;11.53;3.50;;;2.10;99.90;;;;;;4969977;28;20908;-54
2021/04/03 05:15:07;;;;;;;7.83;3.27;;;2.10;99.90;;;;;;4987008;28;20283;-55
2021/04/03 05:17:33;;;;;;;6.63;2.80;;;2.20;99.90;;;;;;4983115;28;20905;-57
2021/04/03 05:20:01;;;;;;;12.23;3.80;;;2.20;99.90;;;;;;4986894;28;20215;-58
2021/04/03 05:22:27;;;;;;;8.17;3.53;;;2.10;99.90;;;;;;4982366;28;20580;-53
2021/04/03 05:24:53;;;;;;;10.97;3.77;;;2.20;99.90;;;;;;4986390;28;20696;-59
2021/04/03 05:27:19;;;;;;;7.90;2.53;;;2.20;99.90;;;;;;4975950;28;20208;-52
2021/04/03 05:29:45;;;;;;;8.40;2.87;;;2.20;99.90;;;;;;4978704;28;20440;-51
2021/04/03 05:32:12;;;;;;;7.33;3.60;;;2.20;99.90;;;;;;4984344;28;20207;-51
2021/04/03 05:34:38;;;;;;;17.63;3.70;;;2.20;99.90;;;;;;4982544;28;20194;-49
2021/04/03 05:37:05;;;;;;;9.47;4.20;;;2.30;99.90;;;;;;4985526;28;20227;-51
2021/04/03 05:39:31;;;;;;;6.13;3.07;;;2.30;99.90;;;;;;4981000;28;20300;-55
2021/04/03 05:41:58;;;;;;;8.43;2.73;;;2.40;99.90;;;;;;4985268;28;20208;-51
2021/04/03 05:44:24;;;;;;;9.03;3.53;;;2.40;99.90;;;;;;4967443;28;20212;-50
2021/04/03 05:46:51;;;;;;;11.10;3.60;;;2.50;99.90;;;;;;4984286;28;20279;-52
2021/04/03 05:49:18;;;;;;;8.50;3.17;;;2.50;99.90;;;;;;4982637;28;20240;-52
2021/04/03 05:51:45;;;;;;;10.77;3.30;;;2.60;99.90;;;;;;4983616;28;20212;-50
2021/04/03 05:54:12;;;;;;;8.30;3.20;;;2.60;99.90;;;;;;4984245;28;20219;-57
2021/04/03 05:56:39;;;;;;;6.57;2.90;;;2.70;99.90;;;;;;4983116;28;20479;-53
2021/04/03 05:59:05;;;;;;;5.93;3.00;;;2.70;99.90;;;;;;4985635;28;20754;-56
2021/04/03 06:01:33;;;;;;;4.53;3.20;;;2.80;99.90;;;;;;4967114;28;20480;-53
2021/04/03 06:04:00;;;;;;;7.60;3.50;;;2.90;99.90;;;;;;4985781;28;20219;-52
2021/04/03 06:06:26;;;;;;;9.27;3.67;;;3.00;99.90;;;;;;4980954;28;20204;-55
2021/04/03 06:08:53;;;;;;;6.67;3.53;;;3.10;99.90;;;;;;4984586;28;20259;-50
2021/04/03 06:11:21;;;;;;;6.47;3.00;;;3.10;99.90;;;;;;4982252;28;20609;-57
2021/04/03 06:14:04;;;;;;;7.10;3.07;;;3.20;99.90;;;;;;4983244;28;20697;-51
2021/04/03 06:16:31;;;;;;;8.37;3.57;;;3.30;99.90;;;;;;4963845;28;20347;-49
2021/04/03 06:19:11;;;;;;;8.73;3.33;;;3.40;99.90;;;;;;4982940;28;20236;-52
2021/04/03 06:21:38;;;;;;;6.90;3.10;;;3.50;99.90;;;;;;4981568;28;20215;-54
2021/04/03 06:24:19;;;;;;;7.27;3.70;;;3.50;99.90;;;;;;4982595;28;20263;-56
2021/04/03 06:26:58;;;;;;;7.57;3.40;;;3.60;99.90;;;;;;4983557;28;20208;-55
2021/04/03 06:29:30;;;;;;;8.17;3.20;;;3.80;99.90;;;;;;4981360;28;20299;-57
2021/04/03 06:31:58;;;;;;;8.53;3.07;;;3.80;99.90;;;;;;4970539;28;20213;-54
2021/04/03 06:34:33;;;;;;;5.07;3.57;;;3.90;99.90;;;;;;4980675;28;20281;-51
2021/04/03 06:37:01;;;;;;;6.03;3.10;;;4.00;99.90;;;;;;4984249;28;20266;-51
2021/04/03 06:39:29;;;;;;;6.90;3.60;;;4.10;99.90;;;;;;4979953;28;20228;-52
2021/04/03 06:41:56;;;;;;;6.13;2.70;;;4.20;99.90;;;;;;4984299;28;20213;-53
2021/04/03 06:44:23;;;;;;;5.83;3.03;;;4.30;99.90;;;;;;4981100;28;20209;-52
2021/04/03 06:46:58;;;;;;;4.43;2.80;;;4.40;99.90;;;;;;4984256;28;20298;-56
2021/04/03 06:49:24;;;;;;;5.60;3.23;;;4.50;99.90;;;;;;4965399;28;20307;-54
2021/04/03 06:51:52;;;;;;;5.33;2.70;;;4.60;99.90;;;;;;4983764;28;20211;-51
2021/04/03 06:54:19;;;;;;;7.90;2.53;;;4.70;99.90;;;;;;4981294;28;20201;-54
2021/04/03 06:56:46;;;;;;;5.33;2.80;;;4.80;99.90;;;;;;4984104;28;20232;-56
2021/04/03 06:59:13;;;;;;;5.30;2.70;;;4.90;99.90;;;;;;4984712;28;20585;-52
2021/04/03 07:01:48;;;;;;;5.63;3.00;;;5.00;99.90;;;;;;4982504;28;20280;-57
2021/04/03 07:04:22;;;;;;;6.63;2.80;;;5.10;99.90;;;;;;4969667;28;20264;-51
2021/04/03 07:06:50;;;;;;;4.57;2.20;;;5.20;99.90;;;;;;4984374;28;20193;-55
2021/04/03 07:09:18;;;;;;;2.90;2.00;;;5.30;99.90;;;;;;4983178;28;20734;-53
2021/04/03 07:11:45;;;;;;;4.70;2.40;;;5.40;99.90;;;;;;4983598;28;20317;-56
2021/04/03 07:14:14;;;;;;;5.03;2.30;;;5.40;99.90;;;;;;4983621;28;20204;-49
2021/04/03 07:16:41;;;;;;;4.90;1.90;;;5.50;99.90;;;;;;4981353;28;20294;-51
2021/04/03 07:19:10;;;;;;;2.90;1.90;;;5.60;99.90;;;;;;4969077;28;20250;-50
2021/04/03 07:21:37;;;;;;;4.17;2.07;;;5.70;99.90;;;;;;4979453;28;20403;-50
2021/04/03 07:24:04;;;;;;;3.73;1.90;;;5.80;99.90;;;;;;4983176;28;20300;-53
2021/04/03 07:26:31;;;;;;;4.67;1.50;;;5.90;99.90;;;;;;4978852;28;20442;-50
2021/04/03 07:28:57;;;;;;;4.87;1.67;;;6.00;99.90;;;;;;4982618;28;20240;-53
2021/04/03 07:31:39;;;;;;;3.57;1.83;;;6.00;99.90;;;;;;4979901;28;20201;-52
2021/04/03 07:34:05;;;;;;;2.53;1.77;;;6.10;99.90;;;;;;4969645;28;20261;-52
2021/04/03 07:36:34;;;;;;;2.23;1.53;;;6.20;99.90;;;;;;4979320;28;20300;-54
2021/04/03 07:39:02;;;;;;;4.20;1.90;;;6.30;99.90;;;;;;4983971;28;20231;-52
2021/04/03 07:41:36;;;;;;;2.53;1.20;;;6.40;99.90;;;;;;4979591;28;20228;-53
2021/04/03 07:44:13;;;;;;;1.60;1.50;;;6.50;99.90;;;;;;4984376;28;20247;-52
2021/04/03 07:46:45;;;;;;;2.67;1.47;;;6.70;99.90;;;;;;4981182;28;20736;-50
2021/04/03 07:49:30;;;;;;;2.87;1.27;;;6.70;99.90;;;;;;4968206;28;20749;-50
2021/04/03 07:51:56;;;;;;;4.00;1.43;;;6.90;99.90;;;;;;4981638;28;20209;-49
2021/04/03 07:54:32;;;;;;;2.80;1.17;;;7.00;99.90;;;;;;4979828;28;20247;-52
2021/04/03 07:57:03;;;;;;;1.40;1.00;;;7.20;99.90;;;;;;4982438;28;20213;-50
2021/04/03 07:59:52;;;;;;;1.87;1.20;;;7.30;99.90;;;;;;4978520;28;20391;-50
2021/04/03 08:02:25;;;;;;;1.80;1.20;;;7.50;99.90;;;;;;4980592;28;20289;-50
2021/04/03 08:04:51;;;;;;;1.80;0.70;;;7.60;99.90;;;;;;4968803;28;20204;-52
2021/04/03 08:07:20;;;;;;;0.80;0.77;;;7.70;99.90;;;;;;4980179;28;20621;-52
2021/04/03 08:09:47;;;;;;;1.57;0.87;;;7.70;99.90;;;;;;4981797;28;20228;-50
2021/04/03 08:12:13;;;;;;;1.40;0.60;;;7.80;99.90;;;;;;4981758;28;20723;-54
2021/04/03 08:14:42;;;;;;;2.20;0.57;;;8.00;99.90;;;;;;4980536;28;20193;-50
2021/04/03 08:17:10;;;;;;;0.67;0.67;;;8.00;99.90;;;;;;4982722;28;20228;-52
2021/04/03 08:19:38;;;;;;;2.80;0.90;;;8.00;99.90;;;;;;4965708;28;20498;-50
2021/04/03 08:22:08;;;;;;;2.17;0.73;;;8.10;99.50;;;;;;4982533;28;20232;-50
2021/04/03 08:24:35;;;;;;;1.77;0.83;;;8.10;94.60;;;;;;4980314;28;20557;-56
2021/04/03 08:27:01;;;;;;;2.90;0.90;;;8.20;94.80;;;;;;4984392;28;20251;-56
2021/04/03 08:29:30;;;;;;;1.83;0.70;;;8.30;94.20;;;;;;4979730;28;20223;-51
2021/04/03 08:31:58;;;;;;;3.33;1.10;;;8.40;93.70;;;;;;4984116;28;20232;-58
2021/04/03 08:34:25;;;;;;;1.80;0.97;;;8.40;94.50;;;;;;4980550;28;20197;-54
2021/04/03 08:36:53;;;;;;;2.20;0.73;;;8.50;94.10;;;;;;4970020;28;20221;-51
2021/04/03 08:39:21;;;;;;;1.17;0.67;;;8.60;92.30;;;;;;4980530;28;20559;-55
2021/04/03 08:41:49;;;;;;;1.80;0.60;;;8.50;93.40;;;;;;4984879;28;20549;-50
2021/04/03 08:44:18;;;;;;;1.27;0.50;;;8.60;93.40;;;;;;5000599;28;20298;-53
2021/04/03 08:46:46;;;;;;;2.40;0.90;;;8.60;93.40;;;;;;4985887;28;20247;-51
2021/04/03 08:49:12;;;;;;;0.87;0.67;;;8.70;93.30;;;;;;4985982;28;20229;-55
2021/04/03 08:51:39;;;;;;;1.97;0.90;;;8.80;97.50;;;;;;4970651;28;20624;-52
2021/04/03 08:54:06;;;;;;;1.27;0.70;;;8.90;92.80;;;;;;4987324;28;20571;-53
2021/04/03 08:56:34;;;;;;;1.83;0.80;;;8.80;93.40;;;;;;4982533;28;20225;-52
2021/04/03 08:59:06;;;;;;;2.80;1.63;;;8.90;92.70;;;;;;4986877;28;20230;-52
2021/04/03 09:01:35;;;;;;;0.80;0.80;;;8.90;90.60;;;;;;4981927;28;20444;-52
2021/04/03 09:04:06;;;;;;;3.33;1.30;;;8.90;90.70;;;;;;4986948;28;20212;-53
2021/04/03 09:06:43;;;;;;;1.27;0.70;;;9.00;90.40;;;;;;4983087;28;20197;-51
2021/04/03 09:09:12;;;;;;;1.13;0.93;;;9.00;89.10;;;;;;4972816;28;20225;-56
2021/04/03 09:11:39;;;;;;;1.57;0.60;;;9.00;85.20;;;;;;4984277;28;20200;-52
2021/04/03 09:14:05;;;;;;;1.27;0.93;;;9.00;85.40;;;;;;4987155;28;20610;-52
2021/04/03 09:16:36;;;;;;;1.00;0.83;;;9.10;87.30;;;;;;4982526;28;20214;-55
2021/04/03 09:19:03;;;;;;;1.27;0.80;;;9.20;83.40;;;;;;4986212;28;20226;-52
2021/04/03 09:21:30;;;;;;;2.30;1.00;;;9.20;85.20;;;;;;4982659;28;20327;-52
2021/04/03 09:23:56;;;;;;;1.63;1.20;;;9.20;85.60;;;;;;4973541;28;20489;-56
2021/04/03 09:26:36;;;;;;;1.43;0.63;;;9.40;81.20;;;;;;4983163;28;20244;-51
2021/04/03 09:29:08;;;;;;;1.87;1.00;;;9.40;81.70;;;;;;4986863;28;20622;-54
2021/04/03 09:31:39;;;;;;;2.17;0.93;;;9.40;83.10;;;;;;4983526;28;20224;-53
2021/04/03 09:34:06;;;;;;;1.90;0.90;;;9.50;80.80;;;;;;4987050;28;20569;-52
2021/04/03 09:36:42;;;;;;;1.90;0.80;;;9.40;81.90;;;;;;4982384;28;20217;-53
2021/04/03 09:39:13;;;;;;;1.23;0.57;;;9.40;76.60;;;;;;4973223;28;20221;-56
2021/04/03 09:41:45;;;;;;;0.83;0.83;;;9.40;79.10;;;;;;4980070;28;20193;-52
2021/04/03 09:44:11;;;;;;;0.97;0.77;;;9.50;77.70;;;;;;4979103;28;20219;-53
2021/04/03 09:46:38;;;;;;;1.67;0.90;;;9.50;77.80;;;;;;4983649;28;20764;-51
2021/04/03 09:49:06;;;;;;;1.57;0.67;;;9.60;77.20;;;;;;4985320;28;20307;-50
2021/04/03 09:51:33;;;;;;;1.53;0.63;;;9.70;77.50;;;;;;4981047;28;20555;-49
2021/04/03 09:53:59;;;;;;;2.00;0.70;;;9.70;75.00;;;;;;4971377;28;20205;-50
2021/04/03 09:56:25;;;;;;;1.57;0.73;;;9.80;73.00;;;;;;4981194;28;20546;-53
2021/04/03 09:58:53;;;;;;;1.60;0.70;;;9.80;70.90;;;;;;4984334;28;20634;-50
2021/04/03 10:01:19;;;;;;;0.93;0.53;;;9.90;69.40;;;;;;4982884;28;20209;-51
2021/04/03 10:03:45;;;;;;;1.23;0.43;;;9.90;67.40;;;;;;4983935;28;20281;-52
2021/04/03 10:06:11;;;;;;;1.10;0.77;;;9.90;64.20;;;;;;4984539;28;20205;-51
2021/04/03 10:08:37;;;;;;;1.40;0.50;;;9.90;61.90;;;;;;4982978;28;20289;-50
2021/04/03 10:11:05;;;;;;;2.13;0.60;;;9.80;62.60;;;;;;4972559;28;20265;-51
2021/04/03 10:13:31;;;;;;;1.13;0.67;;;9.90;62.80;;;;;;4980277;28;20609;-48
2021/04/03 10:15:58;;;;;;;2.03;0.60;;;9.90;63.00;;;;;;4984269;28;20219;-48
2021/04/03 10:18:24;;;;;;;1.77;0.70;;;9.90;64.10;;;;;;4980670;28;20272;-53
2021/04/03 10:20:50;;;;;;;2.90;0.57;;;9.90;64.00;;;;;;4982625;28;20209;-50
2021/04/03 10:23:16;;;;;;;0.63;0.60;;;9.90;64.30;;;;;;4982650;28;20210;-52
2021/04/03 10:25:43;;;;;;;1.70;0.90;;;10.00;65.30;;;;;;4968415;28;20217;-52
2021/04/03 10:28:09;;;;;;;1.13;0.70;;;10.00;66.40;;;;;;4983776;28;20323;-50
2021/04/03 10:30:35;;;;;;;4.10;0.70;;;10.10;66.90;;;;;;4981509;28;20237;-50
2021/04/03 10:33:02;;;;;;;0.70;0.47;;;10.20;67.60;;;;;;4999501;28;20213;-50
2021/04/03 10:35:29;;;;;;;0.80;0.70;;;10.30;68.10;;;;;;4980372;28;20198;-51
2021/04/03 10:37:55;;;;;;;1.47;0.57;;;10.30;67.00;;;;;;4984573;28;20225;-49
2021/04/03 10:40:21;;;;;;;0.93;0.80;;;10.20;67.50;;;;;;4971831;28;20257;-54
2021/04/03 10:42:47;;;;;;;3.70;0.90;;;10.30;68.30;;;;;;4978931;28;20465;-54
2021/04/03 10:45:14;;;;;;;2.27;0.80;;;10.20;67.80;;;;;;4982771;28;20655;-56
2021/04/03 10:47:40;;;;;;;0.87;0.70;;;10.30;67.00;;;;;;4981423;28;20193;-50
2021/04/03 10:50:08;;;;;;;1.03;0.50;;;10.30;66.50;;;;;;4983773;28;20237;-50
2021/04/03 10:52:34;;;;;;;1.40;0.80;;;10.30;68.00;;;;;;4980211;28;20870;-49
2021/04/03 10:55:00;;;;;;;2.50;0.70;;;10.40;67.60;;;;;;4984060;28;20560;-49
2021/04/03 10:57:26;;;;;;;1.10;0.70;;;10.40;80.50;;;;;;4966025;28;20549;-55
2021/04/03 10:59:53;;;;;;;1.10;0.90;;;10.50;82.00;;;;;;4998634;28;20666;-55
2021/04/03 11:02:19;;;;;;;0.97;0.63;;;10.50;71.40;;;;;;4983229;28;20208;-55
2021/04/03 11:04:45;;;;;;;1.33;0.90;;;10.50;65.30;;;;;;4983033;28;20286;-54
2021/04/03 11:07:12;;;;;;;1.13;0.80;;;10.50;65.50;;;;;;4984759;28;20202;-54
2021/04/03 11:09:38;;;;;;;2.03;0.73;;;10.50;65.80;;;;;;4981338;28;20846;-48
2021/04/03 11:12:05;;;;;;;0.83;0.63;;;10.70;65.20;;;;;;4983812;28;20212;-51
2021/04/03 11:14:32;;;;;;;1.37;1.00;;;10.70;64.70;;;;;;4965469;28;20206;-54
2021/04/03 11:16:58;;;;;;;1.00;0.80;;;10.70;64.20;;;;;;4983361;28;20684;-48
2021/04/03 11:19:24;;;;;;;3.23;0.80;;;10.80;62.50;;;;;;4979719;28;20729;-51
2021/04/03 11:21:51;;;;;;;1.77;0.90;;;10.80;62.60;;;;;;4984126;28;20867;-53
2021/04/03 11:24:18;;;;;;;0.73;0.50;;;10.80;62.60;;;;;;4982292;28;20211;-51
2021/04/03 11:26:45;;;;;;;0.80;0.70;;;10.80;62.00;;;;;;4983049;28;20267;-57
2021/04/03 11:29:11;;;;;;;1.67;0.77;;;10.90;62.50;;;;;;4970256;28;20213;-54
2021/04/03 11:31:37;;;;;;;0.77;0.70;;;10.90;61.60;;;;;;4980028;28;20220;-48
2021/04/03 11:34:03;;;;;;;1.07;0.83;;;10.90;61.40;;;;;;4998572;28;20229;-48
2021/04/03 11:36:29;;;;;;;2.17;0.90;;;11.00;62.10;;;;;;4978845;28;20766;-50
2021/04/03 11:38:55;;;;;;;1.03;0.80;;;11.00;60.60;;;;;;4983128;28;20511;-51
2021/04/03 11:41:22;;;;;;;1.90;1.10;;;11.00;60.50;;;;;;4980633;28;20212;-53
2021/04/03 11:43:49;;;;;;;1.73;1.03;;;11.00;60.90;;;;;;4970302;28;20204;-56
2021/04/03 11:46:15;;;;;;;1.17;0.70;;;11.00;60.70;;;;;;4982559;28;20204;-52
2021/04/03 11:48:41;;;;;;;1.27;0.90;;;11.00;60.60;;;;;;4981038;28;20237;-55
2021/04/03 11:51:07;;;;;;;1.77;0.83;;;10.90;60.50;;;;;;4984230;28;20212;-56
2021/04/03 11:53:34;;;;;;;2.57;0.97;;;10.80;60.80;;;;;;4980004;28;20931;-57
2021/04/03 11:56:00;;;;;;;1.07;0.87;;;10.90;61.10;;;;;;4984107;28;20197;-53
2021/04/03 11:58:28;;;;;;;2.20;0.77;;;11.00;59.50;;;;;;4979713;28;20633;-54
2021/04/03 12:00:54;;;;;;;1.10;0.73;;;11.00;59.70;;;;;;4969661;28;20287;-55
2021/04/03 12:03:21;;;;;;;1.70;0.97;;;11.10;60.00;;;;;;4980981;28;20237;-53
2021/04/03 12:05:47;;;;;;;3.10;0.80;;;11.20;59.10;;;;;;4982684;28;20213;-53
2021/04/03 12:08:13;;;;;;;1.53;0.63;;;11.20;59.80;;;;;;4981789;28;20198;-50
2021/04/03 12:10:39;;;;;;;1.20;0.67;;;11.10;58.80;;;;;;4980023;28;20217;-52
2021/04/03 12:13:05;;;;;;;1.10;0.80;;;11.20;59.10;;;;;;4983360;28;20662;-52
2021/04/03 12:15:32;;;;;;;2.87;0.60;;;11.30;59.10;;;;;;4965532;28;20800;-54
2021/04/03 12:17:59;;;;;;;1.13;0.70;;;11.50;58.50;;;;;;4986190;28;20217;-50
2021/04/03 12:20:25;;;;;;;2.13;0.80;;;11.40;57.60;;;;;;4983292;28;20260;-52
2021/04/03 12:22:51;;;;;;;1.17;0.60;;;11.40;58.40;;;;;;4987267;28;20255;-54
2021/04/03 12:25:17;;;;;;;3.23;0.70;;;11.40;58.20;;;;;;4985056;28;20681;-54
2021/04/03 12:27:43;;;;;;;3.17;0.80;;;11.40;57.90;;;;;;4985301;28;20327;-49
2021/04/03 12:30:11;;;;;;;1.33;0.97;;;11.50;57.40;;;;;;4984914;28;20291;-53
2021/04/03 12:32:38;;;;;;;1.53;0.60;;;11.40;56.60;;;;;;4972521;28;20264;-51
2021/04/03 12:35:05;;;;;;;1.07;0.40;;;11.30;56.50;;;;;;4986601;28;20284;-51
2021/04/03 12:37:31;;;;;;;1.33;0.67;;;11.20;55.70;;;;;;4982300;28;20502;-51
2021/04/03 12:39:58;;;;;;;2.47;1.03;;;11.20;56.30;;;;;;4985993;28;20320;-53
2021/04/03 12:42:24;;;;;;;0.70;0.70;;;11.20;56.20;;;;;;4998150;28;20209;-53
2021/04/03 12:44:50;;;;;;;2.47;0.80;;;11.30;56.50;;;;;;4986223;28;20573;-52
2021/04/03 12:47:16;;;;;;;1.77;0.77;;;11.30;56.00;;;;;;4972862;28;20197;-54
2021/04/03 12:49:43;;;;;;;1.30;0.60;;;11.30;56.10;;;;;;4984789;28;21059;-56
2021/04/03 12:52:10;;;;;;;3.07;0.90;;;11.30;56.10;;;;;;5001265;28;20644;-54
2021/04/03 12:54:36;;;;;;;1.40;0.80;;;11.40;56.20;;;;;;4984117;28;20206;-55
2021/04/03 12:57:02;;;;;;;1.40;0.63;;;11.50;55.80;;;;;;4987351;28;20244;-54